sensor_id;sensor_type;location;lat;lon;timestamp;pressure;altitude;pressure_sealevel;temperature;humidity
71642;BME280;60657;50.122;14.468;2022-10-31T00:00:22;98787.92047813325;;;10.954070344090944;86.63752193484397
71642;BME280;60657;50.122;14.468;2022-10-31T00:03:26;98790.41984116475;;;11.004806591897463;86.13969634546426
71642;BME280;60657;50.122;14.468;2022-10-31T00:06:31;98781.25567589818;;;10.900663767452507;86.2369726100557
71642;BME280;60657;50.122;14.468;2022-10-31T00:09:36;98779.54740407;;;10.82055390249485;86.44678416113527
71642;BME280;60657;50.122;14.468;2022-10-31T00:12:40;98783.69103435137;;;10.767147325856413;86.56504158083467
71642;BME280;60657;50.122;14.468;2022-10-31T00:15:45;98781.94538777244;;;10.638971541924164;87.00755321583887
71642;BME280;60657;50.122;14.468;2022-10-31T00:18:49;98781.06040432738;;;10.52414740215152;87.88303959716183
71642;BME280;60657;50.122;14.468;2022-10-31T00:21:54;98783.62841888047;;;10.671015487907226;88.40947585259785
71642;BME280;60657;50.122;14.468;2022-10-31T00:24:59;98782.10858450372;;;10.815213244831007;87.55306324864576
71642;BME280;60657;50.122;14.468;2022-10-31T00:28:04;98791.22573864645;;;10.916685740444038;87.12771801327536
71642;BME280;60657;50.122;14.468;2022-10-31T00:31:10;98790.385544191;;;10.900663767452507;86.45250629434653
71642;BME280;60657;50.122;14.468;2022-10-31T00:34:16;98795.34098768901;;;10.84725719081407;86.18356603341726
71642;BME280;60657;50.122;14.468;2022-10-31T00:37:20;98793.71117985924;;;10.791180285343707;86.82825970855268
71642;BME280;60657;50.122;14.468;2022-10-31T00:40:25;98798.67400794354;;;10.801861600671394;87.54924849317159
71642;BME280;60657;50.122;14.468;2022-10-31T00:43:29;98805.47730769507;;;10.964751659418631;86.24269474326695
71642;BME280;60657;50.122;14.468;2022-10-31T00:46:34;98799.65688060319;;;10.972762645914393;85.77157244220645
71642;BME280;60657;50.122;14.468;2022-10-31T00:49:38;98800.4672070429;;;10.940718699931331;85.82688639658198
71642;BME280;60657;50.122;14.468;2022-10-31T00:52:43;98810.34005417947;;;10.764476997024488;86.4734874494545
71642;BME280;60657;50.122;14.468;2022-10-31T00:55:47;98800.44925746226;;;10.900663767452507;85.80399786373694
71642;BME280;60657;50.122;14.468;2022-10-31T00:58:52;98805.47163471967;;;11.01548790722515;86.12443732356756
71642;BME280;60657;50.122;14.468;2022-10-31T01:01:56;98807.98767489247;;;10.996795605401694;85.36148622873274
71642;BME280;60657;50.122;14.468;2022-10-31T01:05:01;98798.69611118427;;;10.775158312352175;86.52880140383002
71642;BME280;60657;50.122;14.468;2022-10-31T01:08:06;98798.71041981126;;;10.783169298847945;86.50209811551079
71642;BME280;60657;50.122;14.468;2022-10-31T01:11:11;98802.83287430569;;;10.745784695201039;86.79201953154802
71642;BME280;60657;50.122;14.468;2022-10-31T01:14:18;98797.01496122869;;;10.80453192950332;86.72907606622415
71642;BME280;60657;50.122;14.468;2022-10-31T01:17:22;98795.35587994193;;;10.772487983520257;86.58220798046845
71642;BME280;60657;50.122;14.468;2022-10-31T01:20:27;98796.15902127992;;;10.748455024032957;86.89501792935073
71642;BME280;60657;50.122;14.468;2022-10-31T01:23:31;98793.71117985924;;;10.799191271839476;86.61654077973601
71642;BME280;60657;50.122;14.468;2022-10-31T01:26:37;98799.65131585416;;;10.99145494773785;86.24269474326695
71642;BME280;60657;50.122;14.468;2022-10-31T01:29:41;98802.95469755668;;;10.927367055771725;85.97756923781185
71642;BME280;60657;50.122;14.468;2022-10-31T01:32:45;98806.22334042685;;;10.841916533150226;85.49500267032883
71642;BME280;60657;50.122;14.468;2022-10-31T01:35:50;98801.22400415188;;;10.831235217822538;85.95277332722972
71642;BME280;60657;50.122;14.468;2022-10-31T01:38:56;98798.77683871875;;;10.849927519645988;85.35767147325856
71642;BME280;60657;50.122;14.468;2022-10-31T01:42:02;98807.02865804787;;;10.73777370870527;86.9274433508812
71642;BME280;60657;50.122;14.468;2022-10-31T01:45:09;98811.19507285432;;;10.783169298847945;86.23125047684444
71642;BME280;60657;50.122;14.468;2022-10-31T01:48:15;98809.50674064715;;;10.769817654688332;85.94705119401846
71642;BME280;60657;50.122;14.468;2022-10-31T01:51:25;98808.69521266254;;;10.844586861982144;86.05386434729535
71642;BME280;60657;50.122;14.468;2022-10-31T01:54:34;98794.57214834691;;;10.823224231326769;86.18547341115435
71642;BME280;60657;50.122;14.468;2022-10-31T01:57:45;98792.84877769003;;;10.671015487907226;87.12771801327536
71642;BME280;60657;50.122;14.468;2022-10-31T02:00:55;98790.35656983155;;;10.684367132066832;86.34950789654383
71642;BME280;60657;50.122;14.468;2022-10-31T02:04:04;98786.16782112455;;;10.724422064545664;85.86503395132372
71642;BME280;60657;50.122;14.468;2022-10-31T02:07:12;98784.32020823835;;;10.353246356908521;86.86640726329442
71642;BME280;60657;50.122;14.468;2022-10-31T02:10:22;98788.59483434228;;;10.54818036163882;86.7958342870222
71642;BME280;60657;50.122;14.468;2022-10-31T02:13:28;98787.76995197276;;;10.54818036163882;87.42526894026093
71642;BME280;60657;50.122;14.468;2022-10-31T02:16:34;98786.97753602386;;;10.57488364995804;86.85877775234607
71642;BME280;60657;50.122;14.468;2022-10-31T02:19:39;98796.9364114656;;;10.494773785000383;86.4277103837644
71642;BME280;60657;50.122;14.468;2022-10-31T02:23:03;98786.86682473609;;;10.385290302891583;87.92309452964065
71642;BME280;60657;50.122;14.468;2022-10-31T02:26:37;98782.83499170643;;;10.494773785000383;86.95605401693751
71642;BME280;60657;50.122;14.468;2022-10-31T02:30:00;98790.91923028481;;;10.25978484779126;87.2974746318761
71642;BME280;60657;50.122;14.468;2022-10-31T02:33:15;98789.11421178785;;;10.099565117875947;87.77241168841077
71642;BME280;60657;50.122;14.468;2022-10-31T02:36:32;98794.01232155388;;;10.056839856565198;88.62500953688868
71642;BME280;60657;50.122;14.468;2022-10-31T02:39:51;98790.06546090957;;;10.206378271152822;87.62745098039215
71642;BME280;60657;50.122;14.468;2022-10-31T02:43:05;98797.60702790752;;;10.262455176623178;87.36614023041123
71642;BME280;60657;50.122;14.468;2022-10-31T02:46:23;98805.96147415819;;;10.353246356908521;87.04760814831769
71642;BME280;60657;50.122;14.468;2022-10-31T02:49:43;98805.0589717728;;;10.265125505455103;87.38902876325628
71642;BME280;60657;50.122;14.468;2022-10-31T02:52:55;98805.9126694466;;;10.262455176623178;86.71572442206454
71642;BME280;60657;50.122;14.468;2022-10-31T02:56:00;98807.5995461523;;;10.315861753261615;86.70809491111619
71642;BME280;60657;50.122;14.468;2022-10-31T02:59:09;98807.60928934703;;;10.315861753261615;86.55359731441214
71642;BME280;60657;50.122;14.468;2022-10-31T03:02:18;98811.76736043856;;;10.307850766765853;86.09964141298543
71642;BME280;60657;50.122;14.468;2022-10-31T03:05:40;98815.87555349396;;;10.273136491950865;87.03425650415808
71642;BME280;60657;50.122;14.468;2022-10-31T03:09:01;98802.41872430917;;;10.094224460212104;86.1625848783093
71642;BME280;60657;50.122;14.468;2022-10-31T03:12:16;98809.04275182915;;;10.096894789044022;87.06477454795147
71642;BME280;60657;50.122;14.468;2022-10-31T03:15:32;98815.63036666591;;;9.982070649271378;86.65087357900359
71642;BME280;60657;50.122;14.468;2022-10-31T03:18:43;98811.61165578853;;;10.13160906385901;86.75387197680628
71642;BME280;60657;50.122;14.468;2022-10-31T03:21:55;98805.74218592176;;;10.030136568245979;86.1931029221027
71642;BME280;60657;50.122;14.468;2022-10-31T03:25:07;98804.02868667232;;;9.95536736095216;86.58793011367972
71642;BME280;60657;50.122;14.468;2022-10-31T03:28:14;98808.20900675311;;;9.931334401464866;86.21599145494774
71642;BME280;60657;50.122;14.468;2022-10-31T03:31:25;98809.03115314514;;;9.95536736095216;86.96368352788586
71642;BME280;60657;50.122;14.468;2022-10-31T03:34:37;98813.16480572628;;;9.91264209964141;86.71953917753872
71642;BME280;60657;50.122;14.468;2022-10-31T03:37:49;98818.94149253018;;;9.91264209964141;86.49637598229954
71642;BME280;60657;50.122;14.468;2022-10-31T03:40:58;98826.35945738066;;;9.837872892347598;87.6503395132372
71642;BME280;60657;50.122;14.468;2022-10-31T03:44:09;98828.9115190447;;;9.928664072632941;87.24025329976348
71642;BME280;60657;50.122;14.468;2022-10-31T03:47:20;98823.95691369566;;;9.968719005111772;87.032349126421
71642;BME280;60657;50.122;14.468;2022-10-31T03:50:27;98828.1621092486;;;10.016784924086366;86.8835736629282
71642;BME280;60657;50.122;14.468;2022-10-31T03:53:41;98819.82351374275;;;9.97138933394369;87.05142290379187
71642;BME280;60657;50.122;14.468;2022-10-31T03:56:57;98824.83839655598;;;9.984740978103304;86.54024567025253
71642;BME280;60657;50.122;14.468;2022-10-31T04:00:11;98820.69254680733;;;10.027466239414053;86.01190203707942
71642;BME280;60657;50.122;14.468;2022-10-31T04:03:20;98814.70981731305;;;9.845883878843367;86.93125810635539
71642;BME280;60657;50.122;14.468;2022-10-31T04:06:31;98823.75278553806;;;9.789806973373004;86.55741206988633
71642;BME280;60657;50.122;14.468;2022-10-31T04:09:42;98825.52549120536;;;9.867246509498742;86.86640726329442
71642;BME280;60657;50.122;14.468;2022-10-31T04:12:53;98822.26478829398;;;9.95536736095216;86.53833829251545
71642;BME280;60657;50.122;14.468;2022-10-31T04:16:04;98830.57941503088;;;9.958037689784085;86.55741206988633
71642;BME280;60657;50.122;14.468;2022-10-31T04:19:11;98839.70343353151;;;9.960708018616003;86.39147020675975
71642;BME280;60657;50.122;14.468;2022-10-31T04:22:16;98838.86940649874;;;9.934004730296785;86.17975127794308
71642;BME280;60657;50.122;14.468;2022-10-31T04:25:20;98844.6439251054;;;9.837872892347598;86.29610131990539
71642;BME280;60657;50.122;14.468;2022-10-31T04:28:29;98842.10230443395;;;9.805828946364535;86.2941939421683
71642;BME280;60657;50.122;14.468;2022-10-31T04:31:34;98845.37167104623;;;9.755092698558023;86.93316548409247
71642;BME280;60657;50.122;14.468;2022-10-31T04:34:38;98848.81445205891;;;9.853894865339129;86.64133669031816
71642;BME280;60657;50.122;14.468;2022-10-31T04:37:43;98850.46974600178;;;9.82719157701991;86.70237277790494
71642;BME280;60657;50.122;14.468;2022-10-31T04:40:50;98843.89854814507;;;9.966048676279847;86.40100709544518
71642;BME280;60657;50.122;14.468;2022-10-31T04:43:54;98853.88247467988;;;9.976729991607534;86.31708247501335
71642;BME280;60657;50.122;14.468;2022-10-31T04:46:59;98855.47460244404;;;9.91264209964141;86.29800869764249
71642;BME280;60657;50.122;14.468;2022-10-31T04:50:04;98855.47460244404;;;9.931334401464866;86.69855802243076
71642;BME280;60657;50.122;14.468;2022-10-31T04:53:09;98851.25129028798;;;9.83520256351568;86.44869153887235
71642;BME280;60657;50.122;14.468;2022-10-31T04:56:13;98851.02733485731;;;9.74174105439841;86.63561455710689
71642;BME280;60657;50.122;14.468;2022-10-31T04:59:18;98853.55941696391;;;9.771114671549554;88.09857328145266
71642;BME280;60657;50.122;14.468;2022-10-31T05:02:23;98850.44360395035;;;9.89394979781796;87.66941329060808
71642;BME280;60657;50.122;14.468;2022-10-31T05:05:28;98839.74082204475;;;9.963378347447929;86.72526131074999
71642;BME280;60657;50.122;14.468;2022-10-31T05:08:34;98852.05867561433;;;9.800488288700691;86.99420157167926
71642;BME280;60657;50.122;14.468;2022-10-31T05:11:39;98854.5477737471;;;9.80849927519646;87.21355001144427
71642;BME280;60657;50.122;14.468;2022-10-31T05:14:43;98852.81052115087;;;9.736400396734567;87.10292210269321
71642;BME280;60657;50.122;14.468;2022-10-31T05:17:48;98862.80786121289;;;9.813839932860304;87.73235675593195
71642;BME280;60657;50.122;14.468;2022-10-31T05:20:53;98852.89286937758;;;9.859235523002972;87.65224689097428
71642;BME280;60657;50.122;14.468;2022-10-31T05:23:58;98853.6999751556;;;9.843213550011441;87.57976653696498
71642;BME280;60657;50.122;14.468;2022-10-31T05:27:03;98852.03154856926;;;9.832532234683754;87.63698786907759
71642;BME280;60657;50.122;14.468;2022-10-31T05:30:08;98853.75381867614;;;9.917982757305253;86.83779659723811
71642;BME280;60657;50.122;14.468;2022-10-31T05:33:14;98845.41219058394;;;9.883268482490273;86.91981383993286
71642;BME280;60657;50.122;14.468;2022-10-31T05:36:19;98850.44360395035;;;9.891279468986035;87.90211337453269
71642;BME280;60657;50.122;14.468;2022-10-31T05:39:23;98842.30332647554;;;10.024795910582135;87.12199588006409
71642;BME280;60657;50.122;14.468;2022-10-31T05:42:28;98862.93004905176;;;9.923323414969097;86.89692530708781
71642;BME280;60657;50.122;14.468;2022-10-31T05:45:32;98854.66616378732;;;9.944686045624472;87.13153276874952
71642;BME280;60657;50.122;14.468;2022-10-31T05:48:37;98860.46667319482;;;9.901960784313722;86.13778896772718
71642;BME280;60657;50.122;14.468;2022-10-31T05:51:42;98865.35220259758;;;9.83520256351568;87.46341649500268
71642;BME280;60657;50.122;14.468;2022-10-31T05:54:47;98859.61947283798;;;9.952697032120241;86.7367055771725
71642;BME280;60657;50.122;14.468;2022-10-31T05:57:51;98869.57754374975;;;9.928664072632941;86.55550469214923
71642;BME280;60657;50.122;14.468;2022-10-31T06:00:56;98870.27472123009;;;9.781795986877242;86.71763179980164
71642;BME280;60657;50.122;14.468;2022-10-31T06:04:01;98858.53629072374;;;9.701686121919586;87.5606927595941
71642;BME280;60657;50.122;14.468;2022-10-31T06:07:05;98863.6281734876;;;9.840543221179523;86.9274433508812
71642;BME280;60657;50.122;14.468;2022-10-31T06:10:10;98865.29681241715;;;9.763103685053785;87.57213702601663
71642;BME280;60657;50.122;14.468;2022-10-31T06:13:15;98872.79189534677;;;9.83520256351568;87.09719996948196
71642;BME280;60657;50.122;14.468;2022-10-31T06:16:20;98868.5195579921;;;9.720378423743036;87.68085755703059
71642;BME280;60657;50.122;14.468;2022-10-31T06:19:24;98873.58383778068;;;9.79247730220493;87.8563363088426
71642;BME280;60657;50.122;14.468;2022-10-31T06:22:29;98873.55512894675;;;9.763103685053785;87.38330663004501
71642;BME280;60657;50.122;14.468;2022-10-31T06:25:34;98876.08704469616;;;9.821850919356066;87.78957808804455
71642;BME280;60657;50.122;14.468;2022-10-31T06:28:39;98878.53273963385;;;9.709697108415348;87.81437399862669
71642;BME280;60657;50.122;14.468;2022-10-31T06:31:43;98876.89281623422;;;9.763103685053785;87.63126573586634
71642;BME280;60657;50.122;14.468;2022-10-31T06:34:48;98881.0215481792;;;9.744411383230336;87.56450751506829
71642;BME280;60657;50.122;14.468;2022-10-31T06:37:53;98890.90149484543;;;9.69901579308766;87.6655985351339
71642;BME280;60657;50.122;14.468;2022-10-31T06:41:01;98895.01294134419;;;9.821850919356066;87.87922484168764
71642;BME280;60657;50.122;14.468;2022-10-31T06:44:07;98900.85561319735;;;9.82719157701991;88.64980544747081
71642;BME280;60657;50.122;14.468;2022-10-31T06:47:11;98890.18644187391;;;9.896620126649879;88.40375371938659
71642;BME280;60657;50.122;14.468;2022-10-31T06:50:16;98894.30020090163;;;9.917982757305253;88.8863202868696
71642;BME280;60657;50.122;14.468;2022-10-31T06:53:21;98899.23245506;;;9.904631113145648;88.29503318837263
71642;BME280;60657;50.122;14.468;2022-10-31T06:56:25;98900.14235343106;;;9.995422293430991;87.32036316472114
71642;BME280;60657;50.122;14.468;2022-10-31T06:59:30;98905.12032201845;;;9.950026703288316;87.7094682230869
71642;BME280;60657;50.122;14.468;2022-10-31T07:02:35;98894.3298292038;;;10.016784924086366;87.45769436179141
71642;BME280;60657;50.122;14.468;2022-10-31T07:05:39;98904.47301817108;;;10.193026626993209;86.9274433508812
71642;BME280;60657;50.122;14.468;2022-10-31T07:08:44;98907.0447156536;;;10.257114518959334;87.80102235446708
71642;BME280;60657;50.122;14.468;2022-10-31T07:11:51;98908.15334968005;;;10.414663920042727;87.24216067750058
71642;BME280;60657;50.122;14.468;2022-10-31T07:14:56;98899.86748968101;;;10.433356221866177;86.9732204165713
71642;BME280;60657;50.122;14.468;2022-10-31T07:18:06;98906.54138948025;;;10.457389181353477;86.6470588235294
71642;BME280;60657;50.122;14.468;2022-10-31T07:21:15;98915.54354633305;;;10.363927672236208;87.43099107347219
71642;BME280;60657;50.122;14.468;2022-10-31T07:24:20;98909.81041800501;;;10.441367208361946;87.35851071946288
71642;BME280;60657;50.122;14.468;2022-10-31T07:27:25;98912.43544886379;;;10.612268253604945;86.27893492027161
71642;BME280;60657;50.122;14.468;2022-10-31T07:30:30;98910.8293171092;;;10.638971541924164;86.36285954070344
71642;BME280;60657;50.122;14.468;2022-10-31T07:33:35;98911.65332648138;;;10.654993514915695;86.86259250782025
71642;BME280;60657;50.122;14.468;2022-10-31T07:36:39;98918.37655743431;;;10.79652094300755;85.92988479438468
71642;BME280;60657;50.122;14.468;2022-10-31T07:39:44;98911.67357330192;;;10.724422064545664;86.95414663920043
71642;BME280;60657;50.122;14.468;2022-10-31T07:42:49;98909.05521018144;;;10.638971541924164;86.40482185091936
71642;BME280;60657;50.122;14.468;2022-10-31T07:45:55;98915.68496135427;;;10.638971541924164;87.05523765926604
71642;BME280;60657;50.122;14.468;2022-10-31T07:49:00;98926.40356168248;;;10.558861676966508;87.80483710994125
71642;BME280;60657;50.122;14.468;2022-10-31T07:52:05;98920.59846835272;;;10.601586938277258;88.0775921263447
71642;BME280;60657;50.122;14.468;2022-10-31T07:55:09;98920.690954864;;;10.73777370870527;87.82391088731212
71642;BME280;60657;50.122;14.468;2022-10-31T07:58:16;98926.67929623934;;;10.871290150301363;87.72091248950942
71642;BME280;60657;50.122;14.468;2022-10-31T08:01:21;98919.32100172609;;;11.07690547035935;87.10292210269321
71642;BME280;60657;50.122;14.468;2022-10-31T08:04:28;98917.86279977103;;;11.405355916685743;86.40482185091936
71642;BME280;60657;50.122;14.468;2022-10-31T08:07:35;98927.09265097317;;;11.576256961928742;86.02143892576485
71642;BME280;60657;50.122;14.468;2022-10-31T08:10:41;98925.41424273433;;;11.56023498893721;85.74105439841306
71642;BME280;60657;50.122;14.468;2022-10-31T08:13:46;98926.2694263321;;;11.669718471046004;86.09964141298543
71642;BME280;60657;50.122;14.468;2022-10-31T08:16:51;98924.61218372863;;;11.747158007171741;85.66285191119249
71642;BME280;60657;50.122;14.468;2022-10-31T08:19:56;98920.44366495877;;;11.771190966659034;84.43640802624552
71642;BME280;60657;50.122;14.468;2022-10-31T08:23:02;98922.10596339361;;;11.827267872129397;84.14648661020829
71642;BME280;60657;50.122;14.468;2022-10-31T08:26:08;98922.09015558996;;;11.776531624322878;84.7034409094377
71642;BME280;60657;50.122;14.468;2022-10-31T08:29:13;98917.95262747025;;;11.840619516289003;84.06637674525064
71642;BME280;60657;50.122;14.468;2022-10-31T08:32:18;98915.42579850314;;;11.696421759365222;85.52552071412222
71642;BME280;60657;50.122;14.468;2022-10-31T08:35:23;98913.83786242377;;;11.85130083161669;85.07156481269551
71642;BME280;60657;50.122;14.468;2022-10-31T08:38:27;98911.38446564291;;;12.035553521019303;84.45738918135348
71642;BME280;60657;50.122;14.468;2022-10-31T08:41:32;98922.2265483803;;;12.118333714808884;84.16365300984206
71642;BME280;60657;50.122;14.468;2022-10-31T08:44:37;98928.89166983601;;;12.150377660791946;84.46501869230183
71642;BME280;60657;50.122;14.468;2022-10-31T08:47:42;98930.5336098579;;;12.064927138170447;85.03913939116502
71642;BME280;60657;50.122;14.468;2022-10-31T08:50:47;98918.89980143406;;;12.075608453498134;84.28763256275273
71642;BME280;60657;50.122;14.468;2022-10-31T08:53:52;98923.08978627821;;;12.390707255664914;83.91187914854657
71642;BME280;60657;50.122;14.468;2022-10-31T08:56:56;98913.0946581614;;;12.478828107118332;83.70397497520409
71642;BME280;60657;50.122;14.468;2022-10-31T09:00:02;98918.91291027106;;;12.366674296177614;84.71107042038605
71642;BME280;60657;50.122;14.468;2022-10-31T09:03:08;98910.58591004246;;;12.438773174639508;84.14839398794537
71642;BME280;60657;50.122;14.468;2022-10-31T09:06:16;98900.59679733175;;;12.703135728999769;84.59853513389791
71642;BME280;60657;50.122;14.468;2022-10-31T09:09:20;98894.74777808283;;;12.841992828259706;83.56473640039674
71642;BME280;60657;50.122;14.468;2022-10-31T09:12:25;98899.6738462634;;;13.221179522392617;82.96772716868848
71642;BME280;60657;50.122;14.468;2022-10-31T09:15:30;98889.42845379104;;;13.709849698634315;81.56771190966658
71642;BME280;60657;50.122;14.468;2022-10-31T09:18:35;98891.01145936032;;;13.931486991683833;81.10612649729153
71642;BME280;60657;50.122;14.468;2022-10-31T09:21:41;98898.66286485206;;;13.725871671625846;81.29114213778897
71642;BME280;60657;50.122;14.468;2022-10-31T09:24:46;98901.23002197173;;;13.562981612878616;81.82902265964752
71642;BME280;60657;50.122;14.468;2022-10-31T09:27:54;98899.50197099504;;;13.725871671625846;81.42656595712215
71642;BME280;60657;50.122;14.468;2022-10-31T09:31:00;98901.86284249768;;;13.976882581826501;80.14862287327382
71642;BME280;60657;50.122;14.468;2022-10-31T09:34:05;98897.47805102376;;;14.211871519035633;78.80582894636454
71642;BME280;60657;50.122;14.468;2022-10-31T09:37:10;98895.95070316398;;;14.195849546044101;79.06904707408255
71642;BME280;60657;50.122;14.468;2022-10-31T09:40:14;98894.91866238163;;;14.55634393835355;79.68513008316167
71642;BME280;60657;50.122;14.468;2022-10-31T09:43:21;98891.05978436128;;;15.16784924086366;78.14396887159533
71642;BME280;60657;50.122;14.468;2022-10-31T09:46:38;98881.90577011279;;;16.40154116121157;74.10986495765621
71642;BME280;60657;50.122;14.468;2022-10-31T09:50:00;98890.7662843828;;;16.465629053177693;72.95590142671854
71642;BME280;60657;50.122;14.468;2022-10-31T09:53:20;98888.93884956813;;;16.57778286411841;72.33409628442817
71642;BME280;60657;50.122;14.468;2022-10-31T09:56:33;98889.51379747906;;;16.20393682764935;73.79896238651102
71642;BME280;60657;50.122;14.468;2022-10-31T09:59:41;98902.94894792995;;;15.640497444113834;75.33821622034027
71642;BME280;60657;50.122;14.468;2022-10-31T10:02:51;98903.05394704975;;;15.59243152513924;75.33249408712902
71642;BME280;60657;50.122;14.468;2022-10-31T10:06:04;98902.37425878522;;;15.434882124055846;75.84367132066835
71642;BME280;60657;50.122;14.468;2022-10-31T10:09:18;98900.94823413873;;;15.271992065308616;76.70008392462043
71642;BME280;60657;50.122;14.468;2022-10-31T10:12:33;98895.80476025252;;;15.458915083543147;76.27092393377585
71642;BME280;60657;50.122;14.468;2022-10-31T10:15:54;98892.4152625159;;;15.389486533913178;76.58945601586939
71642;BME280;60657;50.122;14.468;2022-10-31T10:19:16;98897.8176466221;;;15.616464484626533;76.60662241550317
71642;BME280;60657;50.122;14.468;2022-10-31T10:22:35;98892.40660965107;;;16.03570611123827;74.95864805065995
71642;BME280;60657;50.122;14.468;2022-10-31T10:25:48;98890.24559088374;;;15.792706187533376;75.91996643015183
71642;BME280;60657;50.122;14.468;2022-10-31T10:29:03;98891.24190477;;;15.768673228046083;75.27145799954224
71642;BME280;60657;50.122;14.468;2022-10-31T10:32:27;98879.19360818624;;;15.995651178759438;74.61722743572138
71642;BME280;60657;50.122;14.468;2022-10-31T10:35:35;98874.36386426953;;;16.39085984588388;74.4074158846418
71642;BME280;60657;50.122;14.468;2022-10-31T10:38:49;98865.44115675529;;;17.154573891813534;72.30548561837186
71642;BME280;60657;50.122;14.468;2022-10-31T10:42:00;98863.18445722082;;;17.50705729762722;70.0891126878767
71642;BME280;60657;50.122;14.468;2022-10-31T10:45:15;98857.75718587723;;;17.782101167315176;69.40245670252537
71642;BME280;60657;50.122;14.468;2022-10-31T10:48:26;98857.11938056265;;;18.4683756771191;66.00350957503625
71642;BME280;60657;50.122;14.468;2022-10-31T10:51:44;98854.53240694536;;;18.91699092088197;65.74601358052949
71642;BME280;60657;50.122;14.468;2022-10-31T10:54:57;98850.16587135529;;;18.954375524528878;64.63401235980774
71642;BME280;60657;50.122;14.468;2022-10-31T10:58:13;98842.3684512646;;;19.06118867780576;64.7427328908217
71642;BME280;60657;50.122;14.468;2022-10-31T11:01:21;98836.8953001095;;;19.21606775005722;63.66124971389334
71642;BME280;60657;50.122;14.468;2022-10-31T11:04:29;98830.66083813821;;;19.272144655527583;63.65171282520791
71642;BME280;60657;50.122;14.468;2022-10-31T11:07:37;98831.99397883649;;;19.378957808804458;62.84679942015717
71642;BME280;60657;50.122;14.468;2022-10-31T11:10:43;98844.0347417283;;;19.280155642023345;62.91165026321812
71642;BME280;60657;50.122;14.468;2022-10-31T11:13:48;98840.92569098341;;;19.720759899290456;63.264515144579235
71642;BME280;60657;50.122;14.468;2022-10-31T11:17:07;98821.39222569218;;;20.981155107957576;59.650034332799265
71642;BME280;60657;50.122;14.468;2022-10-31T11:20:23;98820.34203525084;;;21.333638513771263;57.13801785305562